sensor_id;sensor_type;location;lat;lon;timestamp;P1;durP1;ratioP1;P2;durP2;ratioP2
14770;SDS011;7477;45.222;5.688;2023-06-26T00:02:05;8.27;;;5.63;;
14770;SDS011;7477;45.222;5.688;2023-06-26T00:05:24;5.88;;;5.07;;
14770;SDS011;7477;45.222;5.688;2023-06-26T00:08:43;6.15;;;5.55;;
14770;SDS011;7477;45.222;5.688;2023-06-26T00:12:02;6.53;;;5.32;;
14770;SDS011;7477;45.222;5.688;2023-06-26T00:15:21;6.30;;;5.70;;
14770;SDS011;7477;45.222;5.688;2023-06-26T00:18:40;7.05;;;6.07;;
14770;SDS011;7477;45.222;5.688;2023-06-26T00:21:59;6.70;;;5.70;;
14770;SDS011;7477;45.222;5.688;2023-06-26T00:25:18;6.47;;;5.53;;
14770;SDS011;7477;45.222;5.688;2023-06-26T00:28:38;7.00;;;5.45;;
14770;SDS011;7477;45.222;5.688;2023-06-26T00:31:57;6.40;;;5.47;;
14770;SDS011;7477;45.222;5.688;2023-06-26T00:35:17;6.45;;;5.85;;
14770;SDS011;7477;45.222;5.688;2023-06-26T00:38:36;7.15;;;6.30;;
14770;SDS011;7477;45.222;5.688;2023-06-26T00:41:55;7.53;;;5.45;;
14770;SDS011;7477;45.222;5.688;2023-06-26T00:45:14;7.85;;;6.00;;
14770;SDS011;7477;45.222;5.688;2023-06-26T00:48:33;6.63;;;5.55;;
14770;SDS011;7477;45.222;5.688;2023-06-26T00:51:53;7.47;;;5.78;;
14770;SDS011;7477;45.222;5.688;2023-06-26T00:55:13;8.73;;;5.75;;
14770;SDS011;7477;45.222;5.688;2023-06-26T00:58:33;6.45;;;5.20;;
14770;SDS011;7477;45.222;5.688;2023-06-26T01:01:52;6.00;;;5.10;;
14770;SDS011;7477;45.222;5.688;2023-06-26T01:05:11;6.50;;;5.85;;
14770;SDS011;7477;45.222;5.688;2023-06-26T01:08:31;9.93;;;6.50;;
14770;SDS011;7477;45.222;5.688;2023-06-26T01:11:50;6.78;;;6.00;;
14770;SDS011;7477;45.222;5.688;2023-06-26T01:15:11;7.55;;;5.63;;
14770;SDS011;7477;45.222;5.688;2023-06-26T01:18:30;7.57;;;5.68;;
14770;SDS011;7477;45.222;5.688;2023-06-26T01:22:02;7.00;;;6.30;;
14770;SDS011;7477;45.222;5.688;2023-06-26T01:25:38;6.43;;;5.68;;
14770;SDS011;7477;45.222;5.688;2023-06-26T01:29:10;7.80;;;5.40;;
14770;SDS011;7477;45.222;5.688;2023-06-26T01:32:31;7.78;;;6.07;;
14770;SDS011;7477;45.222;5.688;2023-06-26T01:35:51;6.63;;;5.90;;
14770;SDS011;7477;45.222;5.688;2023-06-26T01:39:15;6.60;;;5.63;;
14770;SDS011;7477;45.222;5.688;2023-06-26T01:42:37;8.20;;;5.57;;
14770;SDS011;7477;45.222;5.688;2023-06-26T01:46:04;6.88;;;5.88;;
14770;SDS011;7477;45.222;5.688;2023-06-26T01:53:10;6.40;;;5.80;;
14770;SDS011;7477;45.222;5.688;2023-06-26T01:56:31;7.57;;;5.43;;
14770;SDS011;7477;45.222;5.688;2023-06-26T01:59:51;9.85;;;5.68;;
14770;SDS011;7477;45.222;5.688;2023-06-26T02:03:12;6.70;;;5.20;;
14770;SDS011;7477;45.222;5.688;2023-06-26T02:06:32;6.30;;;5.65;;
14770;SDS011;7477;45.222;5.688;2023-06-26T02:09:51;6.60;;;5.95;;
14770;SDS011;7477;45.222;5.688;2023-06-26T02:13:11;8.15;;;6.15;;
14770;SDS011;7477;45.222;5.688;2023-06-26T02:16:30;6.40;;;5.80;;
14770;SDS011;7477;45.222;5.688;2023-06-26T02:19:49;6.45;;;5.85;;
14770;SDS011;7477;45.222;5.688;2023-06-26T02:23:08;6.95;;;5.95;;
14770;SDS011;7477;45.222;5.688;2023-06-26T02:26:28;6.10;;;5.50;;
14770;SDS011;7477;45.222;5.688;2023-06-26T02:29:47;7.68;;;6.45;;
14770;SDS011;7477;45.222;5.688;2023-06-26T02:33:06;6.53;;;5.65;;
14770;SDS011;7477;45.222;5.688;2023-06-26T02:36:25;9.05;;;6.32;;
14770;SDS011;7477;45.222;5.688;2023-06-26T02:39:45;9.00;;;6.03;;
14770;SDS011;7477;45.222;5.688;2023-06-26T02:43:04;7.35;;;6.18;;
14770;SDS011;7477;45.222;5.688;2023-06-26T02:46:23;7.15;;;6.03;;
14770;SDS011;7477;45.222;5.688;2023-06-26T02:49:42;12.15;;;6.65;;
14770;SDS011;7477;45.222;5.688;2023-06-26T02:53:01;7.53;;;5.68;;
14770;SDS011;7477;45.222;5.688;2023-06-26T02:56:20;6.85;;;5.53;;
14770;SDS011;7477;45.222;5.688;2023-06-26T02:59:40;7.07;;;6.13;;
14770;SDS011;7477;45.222;5.688;2023-06-26T03:02:59;7.88;;;5.63;;
14770;SDS011;7477;45.222;5.688;2023-06-26T03:06:18;7.85;;;6.65;;
14770;SDS011;7477;45.222;5.688;2023-06-26T03:09:37;8.38;;;6.38;;
14770;SDS011;7477;45.222;5.688;2023-06-26T03:12:57;8.00;;;6.40;;
14770;SDS011;7477;45.222;5.688;2023-06-26T03:16:16;7.05;;;6.22;;
14770;SDS011;7477;45.222;5.688;2023-06-26T03:19:35;8.70;;;6.38;;
14770;SDS011;7477;45.222;5.688;2023-06-26T03:22:54;7.18;;;6.28;;
14770;SDS011;7477;45.222;5.688;2023-06-26T03:26:13;7.70;;;5.97;;
14770;SDS011;7477;45.222;5.688;2023-06-26T03:29:33;7.85;;;5.68;;
14770;SDS011;7477;45.222;5.688;2023-06-26T03:32:52;7.63;;;6.30;;
14770;SDS011;7477;45.222;5.688;2023-06-26T03:36:11;7.70;;;6.10;;
14770;SDS011;7477;45.222;5.688;2023-06-26T03:39:30;7.82;;;6.35;;
14770;SDS011;7477;45.222;5.688;2023-06-26T03:42:49;7.63;;;6.75;;
14770;SDS011;7477;45.222;5.688;2023-06-26T03:46:09;7.50;;;6.70;;
14770;SDS011;7477;45.222;5.688;2023-06-26T03:49:28;7.35;;;5.93;;
14770;SDS011;7477;45.222;5.688;2023-06-26T03:52:47;8.63;;;6.45;;
14770;SDS011;7477;45.222;5.688;2023-06-26T03:56:08;6.95;;;6.25;;
14770;SDS011;7477;45.222;5.688;2023-06-26T03:59:27;8.73;;;6.60;;
14770;SDS011;7477;45.222;5.688;2023-06-26T04:02:46;7.22;;;6.28;;
14770;SDS011;7477;45.222;5.688;2023-06-26T04:06:05;8.57;;;5.65;;
14770;SDS011;7477;45.222;5.688;2023-06-26T04:09:25;7.80;;;5.82;;
14770;SDS011;7477;45.222;5.688;2023-06-26T04:12:45;7.55;;;5.72;;
14770;SDS011;7477;45.222;5.688;2023-06-26T04:16:04;6.32;;;5.72;;
14770;SDS011;7477;45.222;5.688;2023-06-26T04:19:25;8.43;;;6.07;;
14770;SDS011;7477;45.222;5.688;2023-06-26T04:22:44;7.25;;;5.82;;
14770;SDS011;7477;45.222;5.688;2023-06-26T04:26:04;6.65;;;6.03;;
14770;SDS011;7477;45.222;5.688;2023-06-26T04:29:27;7.20;;;6.00;;
14770;SDS011;7477;45.222;5.688;2023-06-26T04:32:46;6.68;;;5.97;;
14770;SDS011;7477;45.222;5.688;2023-06-26T04:36:05;7.13;;;5.38;;
14770;SDS011;7477;45.222;5.688;2023-06-26T04:39:25;10.70;;;6.13;;
14770;SDS011;7477;45.222;5.688;2023-06-26T04:42:45;6.10;;;5.50;;
14770;SDS011;7477;45.222;5.688;2023-06-26T04:46:04;7.55;;;6.38;;
14770;SDS011;7477;45.222;5.688;2023-06-26T04:49:24;6.07;;;5.47;;
14770;SDS011;7477;45.222;5.688;2023-06-26T04:52:43;9.00;;;6.28;;
14770;SDS011;7477;45.222;5.688;2023-06-26T04:56:02;7.30;;;5.82;;
14770;SDS011;7477;45.222;5.688;2023-06-26T04:59:22;8.13;;;6.68;;
14770;SDS011;7477;45.222;5.688;2023-06-26T05:02:41;9.55;;;6.32;;
14770;SDS011;7477;45.222;5.688;2023-06-26T05:06:00;6.93;;;5.93;;
14770;SDS011;7477;45.222;5.688;2023-06-26T05:09:19;7.20;;;6.50;;
14770;SDS011;7477;45.222;5.688;2023-06-26T05:12:38;11.82;;;6.15;;
14770;SDS011;7477;45.222;5.688;2023-06-26T05:15:57;10.00;;;6.78;;
14770;SDS011;7477;45.222;5.688;2023-06-26T05:19:16;8.98;;;6.30;;
14770;SDS011;7477;45.222;5.688;2023-06-26T05:22:35;15.77;;;6.95;;
14770;SDS011;7477;45.222;5.688;2023-06-26T05:25:57;8.23;;;6.40;;
14770;SDS011;7477;45.222;5.688;2023-06-26T05:29:17;8.48;;;6.50;;
14770;SDS011;7477;45.222;5.688;2023-06-26T05:32:37;9.13;;;6.90;;
14770;SDS011;7477;45.222;5.688;2023-06-26T05:35:58;7.32;;;6.10;;
14770;SDS011;7477;45.222;5.688;2023-06-26T05:39:18;9.52;;;7.57;;
14770;SDS011;7477;45.222;5.688;2023-06-26T05:42:38;11.18;;;6.80;;
14770;SDS011;7477;45.222;5.688;2023-06-26T05:45:58;12.15;;;7.45;;
14770;SDS011;7477;45.222;5.688;2023-06-26T05:49:17;11.70;;;8.23;;
14770;SDS011;7477;45.222;5.688;2023-06-26T05:52:36;11.23;;;7.97;;
14770;SDS011;7477;45.222;5.688;2023-06-26T05:55:57;10.88;;;8.27;;
14770;SDS011;7477;45.222;5.688;2023-06-26T05:59:17;11.75;;;8.35;;
14770;SDS011;7477;45.222;5.688;2023-06-26T06:02:37;10.77;;;8.25;;
14770;SDS011;7477;45.222;5.688;2023-06-26T06:05:57;11.60;;;8.13;;
14770;SDS011;7477;45.222;5.688;2023-06-26T06:09:16;8.82;;;7.20;;
14770;SDS011;7477;45.222;5.688;2023-06-26T06:12:36;9.70;;;8.35;;
14770;SDS011;7477;45.222;5.688;2023-06-26T06:15:55;11.63;;;8.27;;
14770;SDS011;7477;45.222;5.688;2023-06-26T06:19:15;11.20;;;7.85;;
14770;SDS011;7477;45.222;5.688;2023-06-26T06:22:34;11.02;;;7.95;;
14770;SDS011;7477;45.222;5.688;2023-06-26T06:25:53;9.38;;;7.35;;
14770;SDS011;7477;45.222;5.688;2023-06-26T06:29:12;10.40;;;7.57;;
14770;SDS011;7477;45.222;5.688;2023-06-26T06:32:31;10.95;;;6.95;;
14770;SDS011;7477;45.222;5.688;2023-06-26T06:35:51;9.75;;;6.68;;
14770;SDS011;7477;45.222;5.688;2023-06-26T06:39:10;9.77;;;7.30;;
14770;SDS011;7477;45.222;5.688;2023-06-26T06:42:29;8.77;;;7.50;;
14770;SDS011;7477;45.222;5.688;2023-06-26T06:45:48;15.15;;;7.57;;
14770;SDS011;7477;45.222;5.688;2023-06-26T06:49:08;9.20;;;7.65;;
14770;SDS011;7477;45.222;5.688;2023-06-26T06:52:28;8.40;;;7.43;;
14770;SDS011;7477;45.222;5.688;2023-06-26T06:55:47;10.85;;;7.30;;
14770;SDS011;7477;45.222;5.688;2023-06-26T06:59:06;10.15;;;7.75;;
14770;SDS011;7477;45.222;5.688;2023-06-26T07:02:25;7.60;;;6.40;;
14770;SDS011;7477;45.222;5.688;2023-06-26T07:05:44;9.73;;;7.88;;
14770;SDS011;7477;45.222;5.688;2023-06-26T07:09:03;10.95;;;7.03;;
14770;SDS011;7477;45.222;5.688;2023-06-26T07:12:24;10.40;;;7.57;;
14770;SDS011;7477;45.222;5.688;2023-06-26T07:15:44;8.52;;;7.57;;
14770;SDS011;7477;45.222;5.688;2023-06-26T07:19:04;9.75;;;7.38;;
14770;SDS011;7477;45.222;5.688;2023-06-26T07:22:23;8.95;;;7.47;;
14770;SDS011;7477;45.222;5.688;2023-06-26T07:25:42;7.72;;;6.93;;
14770;SDS011;7477;45.222;5.688;2023-06-26T07:29:02;8.85;;;7.88;;
14770;SDS011;7477;45.222;5.688;2023-06-26T07:32:21;10.27;;;7.43;;
14770;SDS011;7477;45.222;5.688;2023-06-26T07:35:40;7.63;;;6.80;;
14770;SDS011;7477;45.222;5.688;2023-06-26T07:38:59;7.32;;;6.47;;
14770;SDS011;7477;45.222;5.688;2023-06-26T07:42:18;8.80;;;7.75;;
14770;SDS011;7477;45.222;5.688;2023-06-26T07:45:38;8.88;;;7.72;;
14770;SDS011;7477;45.222;5.688;2023-06-26T07:48:57;8.95;;;7.85;;
14770;SDS011;7477;45.222;5.688;2023-06-26T07:52:17;7.95;;;6.93;;
14770;SDS011;7477;45.222;5.688;2023-06-26T07:55:37;7.93;;;6.13;;
14770;SDS011;7477;45.222;5.688;2023-06-26T07:58:56;10.38;;;8.27;;
14770;SDS011;7477;45.222;5.688;2023-06-26T08:02:16;7.68;;;6.40;;
14770;SDS011;7477;45.222;5.688;2023-06-26T08:05:36;8.65;;;6.28;;
14770;SDS011;7477;45.222;5.688;2023-06-26T08:08:55;8.40;;;7.13;;
14770;SDS011;7477;45.222;5.688;2023-06-26T08:12:15;9.68;;;7.18;;
14770;SDS011;7477;45.222;5.688;2023-06-26T08:15:35;7.30;;;6.60;;
14770;SDS011;7477;45.222;5.688;2023-06-26T08:18:54;6.85;;;6.10;;
14770;SDS011;7477;45.222;5.688;2023-06-26T08:22:13;8.10;;;7.05;;
14770;SDS011;7477;45.222;5.688;2023-06-26T08:25:32;7.13;;;6.43;;
14770;SDS011;7477;45.222;5.688;2023-06-26T08:28:51;7.32;;;6.40;;
14770;SDS011;7477;45.222;5.688;2023-06-26T08:32:11;8.63;;;6.50;;
14770;SDS011;7477;45.222;5.688;2023-06-26T08:35:30;8.30;;;6.85;;
14770;SDS011;7477;45.222;5.688;2023-06-26T08:38:49;8.32;;;7.30;;
14770;SDS011;7477;45.222;5.688;2023-06-26T08:42:08;11.00;;;6.28;;
14770;SDS011;7477;45.222;5.688;2023-06-26T08:45:27;6.90;;;5.90;;
14770;SDS011;7477;45.222;5.688;2023-06-26T08:48:54;10.73;;;7.50;;
14770;SDS011;7477;45.222;5.688;2023-06-26T08:52:24;9.00;;;6.88;;
14770;SDS011;7477;45.222;5.688;2023-06-26T08:55:48;10.77;;;6.82;;
14770;SDS011;7477;45.222;5.688;2023-06-26T08:59:10;7.03;;;6.32;;
14770;SDS011;7477;45.222;5.688;2023-06-26T09:02:31;8.60;;;6.82;;
14770;SDS011;7477;45.222;5.688;2023-06-26T09:05:51;8.57;;;6.65;;
14770;SDS011;7477;45.222;5.688;2023-06-26T09:09:10;10.13;;;6.88;;
14770;SDS011;7477;45.222;5.688;2023-06-26T09:12:31;8.23;;;6.53;;
14770;SDS011;7477;45.222;5.688;2023-06-26T09:15:52;8.70;;;6.80;;
14770;SDS011;7477;45.222;5.688;2023-06-26T09:19:12;9.65;;;6.82;;
14770;SDS011;7477;45.222;5.688;2023-06-26T09:22:33;8.20;;;6.95;;
14770;SDS011;7477;45.222;5.688;2023-06-26T09:25:55;7.57;;;6.88;;
14770;SDS011;7477;45.222;5.688;2023-06-26T09:29:14;9.07;;;6.80;;
14770;SDS011;7477;45.222;5.688;2023-06-26T09:32:36;8.30;;;6.88;;
14770;SDS011;7477;45.222;5.688;2023-06-26T09:35:55;7.57;;;6.55;;
14770;SDS011;7477;45.222;5.688;2023-06-26T09:39:15;9.60;;;6.78;;
14770;SDS011;7477;45.222;5.688;2023-06-26T09:42:34;8.13;;;6.50;;
14770;SDS011;7477;45.222;5.688;2023-06-26T09:45:53;7.05;;;5.82;;
14770;SDS011;7477;45.222;5.688;2023-06-26T09:49:14;7.88;;;6.45;;
14770;SDS011;7477;45.222;5.688;2023-06-26T09:52:34;7.80;;;6.18;;
14770;SDS011;7477;45.222;5.688;2023-06-26T09:55:54;7.15;;;6.05;;
14770;SDS011;7477;45.222;5.688;2023-06-26T09:59:13;9.20;;;6.72;;
14770;SDS011;7477;45.222;5.688;2023-06-26T10:02:33;7.75;;;6.63;;
14770;SDS011;7477;45.222;5.688;2023-06-26T10:05:52;8.07;;;6.65;;
14770;SDS011;7477;45.222;5.688;2023-06-26T10:09:13;7.63;;;6.80;;
14770;SDS011;7477;45.222;5.688;2023-06-26T10:12:35;16.00;;;7.00;;
14770;SDS011;7477;45.222;5.688;2023-06-26T10:15:54;9.07;;;6.35;;
14770;SDS011;7477;45.222;5.688;2023-06-26T10:19:18;9.48;;;6.93;;
14770;SDS011;7477;45.222;5.688;2023-06-26T10:22:44;8.57;;;7.32;;
14770;SDS011;7477;45.222;5.688;2023-06-26T10:26:04;8.13;;;6.68;;
14770;SDS011;7477;45.222;5.688;2023-06-26T10:29:25;7.15;;;6.45;;
14770;SDS011;7477;45.222;5.688;2023-06-26T10:32:45;8.55;;;6.63;;
14770;SDS011;7477;45.222;5.688;2023-06-26T10:36:13;7.82;;;6.10;;
14770;SDS011;7477;45.222;5.688;2023-06-26T10:39:50;7.60;;;6.75;;
14770;SDS011;7477;45.222;5.688;2023-06-26T10:43:13;8.13;;;6.97;;
14770;SDS011;7477;45.222;5.688;2023-06-26T10:46:48;8.70;;;6.57;;
14770;SDS011;7477;45.222;5.688;2023-06-26T10:53:39;8.38;;;6.95;;
14770;SDS011;7477;45.222;5.688;2023-06-26T10:56:59;7.07;;;6.38;;
14770;SDS011;7477;45.222;5.688;2023-06-26T11:00:21;8.27;;;6.90;;
14770;SDS011;7477;45.222;5.688;2023-06-26T11:03:41;7.65;;;6.75;;
14770;SDS011;7477;45.222;5.688;2023-06-26T11:07:25;9.00;;;7.30;;
14770;SDS011;7477;45.222;5.688;2023-06-26T11:10:48;7.45;;;6.55;;
14770;SDS011;7477;45.222;5.688;2023-06-26T11:14:15;8.60;;;6.53;;
14770;SDS011;7477;45.222;5.688;2023-06-26T11:17:35;8.02;;;6.35;;
14770;SDS011;7477;45.222;5.688;2023-06-26T11:21:03;8.38;;;6.63;;
14770;SDS011;7477;45.222;5.688;2023-06-26T11:24:27;10.50;;;6.65;;
14770;SDS011;7477;45.222;5.688;2023-06-26T11:27:48;8.30;;;6.30;;
14770;SDS011;7477;45.222;5.688;2023-06-26T11:31:08;11.50;;;6.63;;
14770;SDS011;7477;45.222;5.688;2023-06-26T11:34:41;7.85;;;6.70;;
14770;SDS011;7477;45.222;5.688;2023-06-26T11:38:03;8.00;;;6.70;;
14770;SDS011;7477;45.222;5.688;2023-06-26T11:41:26;7.85;;;6.22;;
14770;SDS011;7477;45.222;5.688;2023-06-26T11:44:47;10.38;;;6.22;;
14770;SDS011;7477;45.222;5.688;2023-06-26T11:48:06;7.68;;;6.47;;
14770;SDS011;7477;45.222;5.688;2023-06-26T11:51:26;11.75;;;7.18;;
14770;SDS011;7477;45.222;5.688;2023-06-26T11:54:47;7.13;;;6.30;;
14770;SDS011;7477;45.222;5.688;2023-06-26T11:58:06;9.32;;;5.97;;
14770;SDS011;7477;45.222;5.688;2023-06-26T12:01:26;10.77;;;7.35;;
14770;SDS011;7477;45.222;5.688;2023-06-26T12:04:46;12.32;;;6.07;;
14770;SDS011;7477;45.222;5.688;2023-06-26T12:08:06;10.73;;;6.55;;
14770;SDS011;7477;45.222;5.688;2023-06-26T12:11:27;8.18;;;6.60;;
14770;SDS011;7477;45.222;5.688;2023-06-26T12:14:48;8.35;;;6.72;;
14770;SDS011;7477;45.222;5.688;2023-06-26T12:18:08;8.23;;;6.72;;
14770;SDS011;7477;45.222;5.688;2023-06-26T12:21:28;7.70;;;6.90;;
14770;SDS011;7477;45.222;5.688;2023-06-26T12:24:48;7.95;;;6.43;;
14770;SDS011;7477;45.222;5.688;2023-06-26T12:28:15;10.00;;;6.70;;
14770;SDS011;7477;45.222;5.688;2023-06-26T12:31:35;11.15;;;7.53;;
14770;SDS011;7477;45.222;5.688;2023-06-26T12:34:57;7.80;;;6.53;;
14770;SDS011;7477;45.222;5.688;2023-06-26T12:38:17;7.65;;;6.85;;
14770;SDS011;7477;45.222;5.688;2023-06-26T12:45:11;7.38;;;6.65;;
14770;SDS011;7477;45.222;5.688;2023-06-26T12:48:36;12.25;;;6.65;;
14770;SDS011;7477;45.222;5.688;2023-06-26T12:52:08;10.75;;;6.63;;
14770;SDS011;7477;45.222;5.688;2023-06-26T12:55:28;9.57;;;7.10;;
14770;SDS011;7477;45.222;5.688;2023-06-26T12:58:48;9.90;;;6.50;;
14770;SDS011;7477;45.222;5.688;2023-06-26T13:02:07;7.15;;;6.45;;
14770;SDS011;7477;45.222;5.688;2023-06-26T13:05:27;9.00;;;6.95;;
14770;SDS011;7477;45.222;5.688;2023-06-26T13:08:46;12.15;;;6.82;;
14770;SDS011;7477;45.222;5.688;2023-06-26T13:12:05;10.00;;;6.65;;
14770;SDS011;7477;45.222;5.688;2023-06-26T13:15:25;8.80;;;6.57;;
14770;SDS011;7477;45.222;5.688;2023-06-26T13:18:44;7.93;;;7.07;;
14770;SDS011;7477;45.222;5.688;2023-06-26T13:22:04;8.80;;;7.20;;
14770;SDS011;7477;45.222;5.688;2023-06-26T13:25:23;8.20;;;6.65;;
14770;SDS011;7477;45.222;5.688;2023-06-26T13:28:42;7.57;;;6.78;;
14770;SDS011;7477;45.222;5.688;2023-06-26T13:32:01;12.32;;;7.18;;
14770;SDS011;7477;45.222;5.688;2023-06-26T13:35:22;8.82;;;6.53;;
14770;SDS011;7477;45.222;5.688;2023-06-26T13:38:42;8.90;;;6.93;;
14770;SDS011;7477;45.222;5.688;2023-06-26T13:42:01;8.02;;;6.25;;
14770;SDS011;7477;45.222;5.688;2023-06-26T13:45:21;10.07;;;6.47;;
14770;SDS011;7477;45.222;5.688;2023-06-26T13:48:40;7.28;;;6.45;;
14770;SDS011;7477;45.222;5.688;2023-06-26T13:52:00;8.32;;;6.70;;
14770;SDS011;7477;45.222;5.688;2023-06-26T13:55:20;9.93;;;6.95;;
14770;SDS011;7477;45.222;5.688;2023-06-26T13:58:41;10.02;;;6.30;;
14770;SDS011;7477;45.222;5.688;2023-06-26T14:02:00;11.30;;;7.18;;
14770;SDS011;7477;45.222;5.688;2023-06-26T14:05:19;9.05;;;6.80;;
14770;SDS011;7477;45.222;5.688;2023-06-26T14:08:39;8.00;;;6.13;;
14770;SDS011;7477;45.222;5.688;2023-06-26T14:11:58;10.85;;;6.97;;
14770;SDS011;7477;45.222;5.688;2023-06-26T14:15:18;10.25;;;6.28;;
14770;SDS011;7477;45.222;5.688;2023-06-26T14:18:37;18.30;;;6.93;;
14770;SDS011;7477;45.222;5.688;2023-06-26T14:21:56;13.15;;;6.30;;
14770;SDS011;7477;45.222;5.688;2023-06-26T14:25:16;9.30;;;7.00;;
14770;SDS011;7477;45.222;5.688;2023-06-26T14:28:35;7.07;;;6.38;;
14770;SDS011;7477;45.222;5.688;2023-06-26T14:31:54;14.07;;;6.65;;
14770;SDS011;7477;45.222;5.688;2023-06-26T14:35:14;10.40;;;6.78;;
14770;SDS011;7477;45.222;5.688;2023-06-26T14:38:33;8.60;;;6.38;;
14770;SDS011;7477;45.222;5.688;2023-06-26T14:41:52;6.65;;;6.00;;
14770;SDS011;7477;45.222;5.688;2023-06-26T14:45:12;6.97;;;5.97;;
14770;SDS011;7477;45.222;5.688;2023-06-26T14:48:31;9.35;;;6.15;;
14770;SDS011;7477;45.222;5.688;2023-06-26T14:51:51;10.60;;;6.50;;
14770;SDS011;7477;45.222;5.688;2023-06-26T14:55:10;7.18;;;6.10;;
14770;SDS011;7477;45.222;5.688;2023-06-26T14:58:29;7.75;;;6.90;;
14770;SDS011;7477;45.222;5.688;2023-06-26T15:01:49;7.18;;;6.28;;
14770;SDS011;7477;45.222;5.688;2023-06-26T15:05:08;7.53;;;6.32;;
14770;SDS011;7477;45.222;5.688;2023-06-26T15:08:27;9.48;;;6.22;;
14770;SDS011;7477;45.222;5.688;2023-06-26T15:11:46;8.65;;;5.82;;
14770;SDS011;7477;45.222;5.688;2023-06-26T15:15:06;7.47;;;5.68;;
14770;SDS011;7477;45.222;5.688;2023-06-26T15:18:26;7.18;;;5.63;;
14770;SDS011;7477;45.222;5.688;2023-06-26T15:21:45;7.82;;;6.25;;
14770;SDS011;7477;45.222;5.688;2023-06-26T15:25:04;9.55;;;6.20;;
14770;SDS011;7477;45.222;5.688;2023-06-26T15:28:25;10.35;;;6.25;;
14770;SDS011;7477;45.222;5.688;2023-06-26T15:31:44;11.48;;;6.38;;
14770;SDS011;7477;45.222;5.688;2023-06-26T15:35:04;7.97;;;6.00;;
14770;SDS011;7477;45.222;5.688;2023-06-26T15:38:24;8.68;;;5.55;;
14770;SDS011;7477;45.222;5.688;2023-06-26T15:41:44;6.88;;;6.03;;
14770;SDS011;7477;45.222;5.688;2023-06-26T15:45:04;6.55;;;5.95;;
14770;SDS011;7477;45.222;5.688;2023-06-26T15:48:23;6.68;;;5.57;;
14770;SDS011;7477;45.222;5.688;2023-06-26T15:51:44;8.20;;;6.00;;
14770;SDS011;7477;45.222;5.688;2023-06-26T15:55:04;8.60;;;5.57;;
14770;SDS011;7477;45.222;5.688;2023-06-26T15:58:23;5.97;;;5.38;;
14770;SDS011;7477;45.222;5.688;2023-06-26T16:01:42;6.47;;;5.88;;
14770;SDS011;7477;45.222;5.688;2023-06-26T16:05:03;6.35;;;5.60;;
14770;SDS011;7477;45.222;5.688;2023-06-26T16:08:23;9.95;;;5.35;;
14770;SDS011;7477;45.222;5.688;2023-06-26T16:11:42;8.13;;;5.53;;
14770;SDS011;7477;45.222;5.688;2023-06-26T16:15:01;7.40;;;5.32;;
14770;SDS011;7477;45.222;5.688;2023-06-26T16:18:21;7.40;;;5.70;;
14770;SDS011;7477;45.222;5.688;2023-06-26T16:21:41;6.65;;;5.78;;
14770;SDS011;7477;45.222;5.688;2023-06-26T16:25:01;7.00;;;5.53;;
14770;SDS011;7477;45.222;5.688;2023-06-26T16:28:20;8.48;;;6.43;;
14770;SDS011;7477;45.222;5.688;2023-06-26T16:31:39;8.75;;;5.95;;
14770;SDS011;7477;45.222;5.688;2023-06-26T16:34:59;7.50;;;5.22;;
14770;SDS011;7477;45.222;5.688;2023-06-26T16:38:18;7.25;;;5.38;;
14770;SDS011;7477;45.222;5.688;2023-06-26T16:41:38;7.88;;;5.55;;
14770;SDS011;7477;45.222;5.688;2023-06-26T16:44:57;6.85;;;5.47;;
14770;SDS011;7477;45.222;5.688;2023-06-26T16:48:17;5.75;;;4.95;;
14770;SDS011;7477;45.222;5.688;2023-06-26T16:51:36;7.88;;;5.80;;
14770;SDS011;7477;45.222;5.688;2023-06-26T16:54:55;8.15;;;5.22;;
14770;SDS011;7477;45.222;5.688;2023-06-26T16:58:14;6.05;;;5.40;;
14770;SDS011;7477;45.222;5.688;2023-06-26T17:01:34;7.10;;;5.57;;
14770;SDS011;7477;45.222;5.688;2023-06-26T17:04:53;6.18;;;5.30;;
14770;SDS011;7477;45.222;5.688;2023-06-26T17:08:12;6.95;;;5.35;;
14770;SDS011;7477;45.222;5.688;2023-06-26T17:11:32;6.20;;;5.50;;
14770;SDS011;7477;45.222;5.688;2023-06-26T17:14:51;6.15;;;5.43;;
14770;SDS011;7477;45.222;5.688;2023-06-26T17:18:11;6.38;;;5.75;;
14770;SDS011;7477;45.222;5.688;2023-06-26T17:21:30;6.55;;;5.78;;
14770;SDS011;7477;45.222;5.688;2023-06-26T17:24:49;7.63;;;5.60;;
14770;SDS011;7477;45.222;5.688;2023-06-26T17:28:08;7.32;;;5.07;;
14770;SDS011;7477;45.222;5.688;2023-06-26T17:31:28;6.55;;;5.25;;
14770;SDS011;7477;45.222;5.688;2023-06-26T17:34:50;6.78;;;5.15;;
14770;SDS011;7477;45.222;5.688;2023-06-26T17:38:10;9.40;;;5.97;;
14770;SDS011;7477;45.222;5.688;2023-06-26T17:41:29;6.78;;;5.53;;
14770;SDS011;7477;45.222;5.688;2023-06-26T17:44:48;6.85;;;5.78;;
14770;SDS011;7477;45.222;5.688;2023-06-26T17:48:07;7.57;;;5.20;;
14770;SDS011;7477;45.222;5.688;2023-06-26T17:51:27;9.98;;;5.75;;
14770;SDS011;7477;45.222;5.688;2023-06-26T17:54:46;7.47;;;5.75;;
14770;SDS011;7477;45.222;5.688;2023-06-26T17:58:05;5.80;;;5.20;;
14770;SDS011;7477;45.222;5.688;2023-06-26T18:01:24;6.05;;;5.45;;
14770;SDS011;7477;45.222;5.688;2023-06-26T18:04:43;7.03;;;4.85;;
14770;SDS011;7477;45.222;5.688;2023-06-26T18:08:02;5.85;;;4.75;;
14770;SDS011;7477;45.222;5.688;2023-06-26T18:11:22;5.55;;;4.97;;
14770;SDS011;7477;45.222;5.688;2023-06-26T18:14:41;7.07;;;5.50;;
14770;SDS011;7477;45.222;5.688;2023-06-26T18:18:00;6.07;;;4.70;;
14770;SDS011;7477;45.222;5.688;2023-06-26T18:21:19;6.20;;;4.80;;
14770;SDS011;7477;45.222;5.688;2023-06-26T18:24:39;5.05;;;4.55;;
14770;SDS011;7477;45.222;5.688;2023-06-26T18:27:58;5.30;;;4.80;;
14770;SDS011;7477;45.222;5.688;2023-06-26T18:31:18;7.03;;;4.25;;
14770;SDS011;7477;45.222;5.688;2023-06-26T18:34:38;5.30;;;4.80;;
14770;SDS011;7477;45.222;5.688;2023-06-26T18:37:57;8.15;;;4.30;;
14770;SDS011;7477;45.222;5.688;2023-06-26T18:41:16;5.82;;;4.05;;
14770;SDS011;7477;45.222;5.688;2023-06-26T18:44:35;6.65;;;4.70;;
14770;SDS011;7477;45.222;5.688;2023-06-26T18:47:54;4.72;;;4.13;;
14770;SDS011;7477;45.222;5.688;2023-06-26T18:51:14;6.28;;;4.78;;
14770;SDS011;7477;45.222;5.688;2023-06-26T18:54:33;3.90;;;3.60;;
14770;SDS011;7477;45.222;5.688;2023-06-26T18:57:53;6.00;;;4.38;;
14770;SDS011;7477;45.222;5.688;2023-06-26T19:01:12;6.05;;;4.03;;
14770;SDS011;7477;45.222;5.688;2023-06-26T19:04:31;4.43;;;4.03;;
14770;SDS011;7477;45.222;5.688;2023-06-26T19:07:51;6.47;;;4.38;;
14770;SDS011;7477;45.222;5.688;2023-06-26T19:11:11;5.93;;;4.22;;
14770;SDS011;7477;45.222;5.688;2023-06-26T19:14:32;6.35;;;4.78;;
14770;SDS011;7477;45.222;5.688;2023-06-26T19:17:52;4.35;;;3.95;;
14770;SDS011;7477;45.222;5.688;2023-06-26T19:21:11;7.40;;;4.55;;
14770;SDS011;7477;45.222;5.688;2023-06-26T19:24:30;6.60;;;4.15;;
14770;SDS011;7477;45.222;5.688;2023-06-26T19:27:49;5.50;;;4.13;;
14770;SDS011;7477;45.222;5.688;2023-06-26T19:31:08;6.25;;;4.18;;
14770;SDS011;7477;45.222;5.688;2023-06-26T19:34:28;7.07;;;4.82;;
14770;SDS011;7477;45.222;5.688;2023-06-26T19:37:47;5.35;;;4.68;;
14770;SDS011;7477;45.222;5.688;2023-06-26T19:41:06;6.63;;;4.68;;
14770;SDS011;7477;45.222;5.688;2023-06-26T19:44:25;5.57;;;5.07;;
14770;SDS011;7477;45.222;5.688;2023-06-26T19:47:45;5.15;;;4.65;;
14770;SDS011;7477;45.222;5.688;2023-06-26T19:51:05;5.70;;;4.53;;
14770;SDS011;7477;45.222;5.688;2023-06-26T19:54:25;4.85;;;4.40;;
14770;SDS011;7477;45.222;5.688;2023-06-26T19:57:45;7.20;;;4.60;;
14770;SDS011;7477;45.222;5.688;2023-06-26T20:01:06;5.35;;;4.85;;
14770;SDS011;7477;45.222;5.688;2023-06-26T20:04:25;6.50;;;4.50;;
14770;SDS011;7477;45.222;5.688;2023-06-26T20:07:44;5.53;;;4.57;;
14770;SDS011;7477;45.222;5.688;2023-06-26T20:11:04;9.10;;;4.57;;
14770;SDS011;7477;45.222;5.688;2023-06-26T20:14:23;4.93;;;4.30;;
14770;SDS011;7477;45.222;5.688;2023-06-26T20:17:43;4.57;;;4.10;;
14770;SDS011;7477;45.222;5.688;2023-06-26T20:21:02;5.97;;;4.47;;
14770;SDS011;7477;45.222;5.688;2023-06-26T20:24:21;5.53;;;4.50;;
14770;SDS011;7477;45.222;5.688;2023-06-26T20:27:41;5.10;;;4.40;;
14770;SDS011;7477;45.222;5.688;2023-06-26T20:31:00;5.50;;;4.43;;
14770;SDS011;7477;45.222;5.688;2023-06-26T20:34:20;6.30;;;4.97;;